Forest, Canada
Current Conditions -  °F | °C
As of 1:29 PM on Friday 31 Oct 2014 (Local Time) from CYZR Reporting Station
Moderate Rain Moderate Rain  
Wind Chill: 42°   Ceiling: 1700
Heat Index: 45°   Visibility: 5mi
Dew Point: 41°   Wind: 5mph
Humidity: 87%   Direction: 330°NNW
Pressure: 29.88"   Gusts: NA
Location:  43.1°N, 82°W
Report Text: CYZR 311729Z AUTO 33004KT 300V360 5SM RA BR SCT011 BKN017 BKN023 OVC029 07/05 A2988 RMK PCPN 1.0MM PAST HR SLP121
Loading
Personal Weather Stations






























Interactive Weather Map
Tropical Storm Tracking
New forecast layout! Learn more

10-Day Weather Forecast

Advertisements
Track Severe Weather on mobile